Weather observations for the past three days for
Lawrence, Lawrence Municipal Airport
Metric (Imperial)
Date Time (cdt) Wind (kph) Vis. (km) Weather Sky Cond. Temperature (ºC) Relative Humidity Wind Chill (°C) Heat Index (°C) Pressure Precipitation (cm)
Air Dwpt 6 hour altimeter (cm) sea level (mb) 1 hr 3 hr 6 hr
Max. Min.
06 05:52 W 6 14.48 Fair CLR 21.7 20.6 94% 76.1 1013.3
06 04:52 Calm 14.48 Fair CLR 21.7 21.1 96% 76.05 1013.0
06 03:52 Calm 14.48 Fair CLR 21.7 21.1 96% 76.02 1012.5
06 02:52 Calm 12.87 Fair CLR 22.2 21.7 97% 76.02 1012.4
06 01:52 Calm 14.48 Fair CLR 22.8 21.7 94% 76.05 1012.7
06 00:52 Calm 16.09 Fair CLR 23.3 22.2 32.2 23.3 94% 76.05 1012.9
05 23:52 Calm 14.48 Fair CLR 24.4 22.8 91% 24 76.05 1012.9
05 22:52 Calm 16.09 Fair CLR 26.1 22.2 79% 28 76.05 1012.6
05 21:52 E 6 16.09 Fair CLR 27.8 22.2 72% 30 76 1012.0
05 20:52 E 11 16.09 Fair CLR 29.4 21.7 63% 32 75.92 1011.2
05 19:52 NE 9 12.87 Fair CLR 29.4 22.2 65% 33 75.9 1010.9
05 18:52 SE 7 16.09 Fair CLR 32.2 23.9 38.3 32.2 62% 38 75.87 1010.6
05 17:52 SE 11 16.09 A Few Clouds FEW080 37.2 20 37% 40 75.87 1010.6
05 16:52 SE 11 16.09 Partly Cloudy SCT080 37.8 18.9 33% 40 75.9 1010.9
05 15:52 Calm 16.09 Fair CLR 37.8 18.3 32% 40 75.95 1011.4
05 12:52 S 9 16.09 Fair CLR 36.7 20 36.7 20 38% 40 76.1 1013.6
05 11:52 S 6 16.09 Fair CLR 35 21.7 46% 39 76.15 1014.2
05 10:52 S 7 16.09 Fair CLR 32.8 21.1 50% 36 76.15 1014.1
05 09:52 E 6 16.09 Fair CLR 29.4 21.1 61% 32 76.12 1013.8
05 08:52 Calm 14.48 Fair CLR 26.1 21.1 74% 28 76.1 1013.8
05 07:52 Calm 14.48 Fair CLR 21.7 20.6 94% 76.07 1013.3
05 06:52 E 6 14.48 Fair CLR 20.6 19.4 22.2 19.4 93% 76.02 1012.5
05 05:52 Calm 16.09 Fair CLR 19.4 18.9 97% 76 1012.2
05 04:52 Calm 12.87 Fair CLR 19.4 18.9 97% 76 1012.1
05 03:52 Calm 14.48 Fair CLR 20 20 100% 76 1012.2
05 02:52 Calm 11.27 Fair CLR 20 20 100% 76 1012.1
05 01:52 Calm 16.09 Fair CLR 21.1 20 93% 76 1012.3
05 00:52 Calm 16.09 Fair CLR 21.7 21.1 34.4 21.7 96% 76.02 1012.4
04 23:52 Calm 14.48 Fair CLR 22.8 21.1 90% 76 1012.4
04 22:52 E 6 14.48 Fair CLR 22.2 21.1 94% 76 1012.1
04 21:52 E 6 16.09 Fair CLR 24.4 22.2 88% 25 75.97 1011.9
04 20:52 E 6 14.48 Fair CLR 25.6 22.2 82% 27 75.92 1011.3
04 19:52 E 6 16.09 Fair CLR 27.8 23.3 77% 31 75.87 1010.8
04 18:52 S 9 16.09 Fair CLR 34.4 20 37.2 34.4 43% 37 75.9 1010.8
04 17:52 S 15 16.09 Fair CLR 36.1 19.4 37% 38 75.9 1010.8
04 16:52 S 19 G 31 16.09 Fair CLR 36.7 20 38% 40 75.92 1011.0
04 15:52 S 19 16.09 Fair CLR 36.7 20.6 39% 40 75.92 1011.3
04 14:52 SW 15 G 31 16.09 Fair CLR 36.7 20 38% 40 75.97 1011.8
04 13:52 S 15 16.09 Fair CLR 35.6 20 40% 38 76.02 1012.3
04 12:52 S 15 G 33 16.09 Fair CLR 34.4 19.4 35 21.1 41% 36 76.05 1012.7
04 10:52 S 15 16.09 Fair CLR 32.2 21.1 52% 35 76.1 1013.4
04 09:52 S 13 16.09 Fair CLR 30 21.1 59% 33 76.1 1013.5
04 08:52 Vrbl 7 16.09 Fair CLR 26.7 21.1 71% 28 76.1 1013.7
04 07:52 E 7 14.48 Fair CLR 23.9 21.1 84% 24 76.07 1013.2
04 06:52 SE 7 16.09 Fair CLR 21.7 20 25.6 21.1 90% 76.02 1012.4
04 05:52 SE 11 16.09 Fair CLR 21.7 20 90% 76 1012.1
04 04:52 SE 7 16.09 Fair CLR 22.2 20 87% 75.97 1011.7
04 03:52 Calm 16.09 Fair CLR 22.2 20.6 91% 75.92 1011.1
04 02:52 Calm 16.09 Fair CLR 22.2 20.6 91% 75.92 1011.1
04 01:52 SW 6 16.09 Fair CLR 23.9 20.6 82% 24 75.92 1011.1
04 00:52 Calm 16.09 Fair CLR 24.4 20 34.4 23.9 77% 25 75.92 1011.1
03 23:52 SE 7 16.09 Fair CLR 24.4 20.6 79% 25 75.9 1010.8
03 22:52 SE 7 16.09 Fair CLR 25 20.6 77% 26 75.9 1010.7
03 21:52 SE 7 16.09 Fair CLR 25.6 21.1 76% 27 75.87 1010.6
03 20:52 E 13 16.09 Fair CLR 27.8 20.6 65% 30 75.82 1010.0
03 19:52 S 7 16.09 Fair CLR 28.9 21.7 65% 32 75.77 1009.2
03 18:52 S 11 16.09 Fair CLR 35 19.4 36.7 35 40% 37 75.77 1009.1
03 17:52 S 15 16.09 Fair CLR 36.1 18.3 35% 38 75.77 1008.9
03 16:52 S 15 16.09 Fair CLR 36.7 19.4 36% 39 75.77 1009.2
03 15:52 S 19 G 33 16.09 Fair CLR 36.7 19.4 36% 39 75.82 1009.7
03 14:52 S 22 G 35 16.09 Fair CLR 36.1 20 39% 39 75.87 1010.4
03 13:52 S 28 G 37 16.09 Fair CLR 36.1 20 39% 39 75.9 1010.9
03 12:52 S 22 G 35 16.09 Fair CLR 35 20 35 24.4 41% 38 75.95 1011.5
03 11:52 S 24 G 33 16.09 Fair CLR 33.9 20 44% 36 76 1012.1
03 10:52 SW 19 G 33 16.09 Fair CLR 32.8 20.6 49% 36 76.02 1012.3
03 09:52 S 17 G 35 16.09 Fair CLR 30.6 20.6 55% 33 76.02 1012.5
03 08:52 S 24 16.09 Fair CLR 28.3 20.6 63% 30 76.02 1012.6
03 07:52 S 11 16.09 Fair CLR 26.1 19.4 67% 27 76.05 1012.7
03 06:52 S 9 16.09 Fair CLR 24.4 19.4 25 21.1 74% 25 76 1012.0
Date Time (cdt) Wind (kph) Vis. (km) Weather Sky Cond. Air Dwpt Max. Min. Relative Humidity Wind Chill (°C) Heat Index (°C) altimeter (cm) sea level (mb) 1 hr 3 hr 6 hr
6 hour
Temperature (ºC) Pressure Precipitation (cm)